Time;durP1;ratioP1;P1;durP2;ratioP2;P2;SDS_P1;SDS_P2;PMS_P1;PMS_P2;Temp;Humidity;BMP_temperature;BMP_pressure;BME280_temperature;BME280_humidity;BME280_pressure;Samples;Min_cycle;Max_cycle;Signal;HPM_P1;HPM_P2
2023/05/16 00:00:34;;;;;;;;;;;8.30;99.90;;;;;;6186122;23;19963;-75
2023/05/16 00:03:00;;;;;;;;;;;8.20;99.90;;;;;;6189575;23;19927;-76
2023/05/16 00:05:26;;;;;;;;;;;8.10;99.90;;;;;;6166696;23;19924;-76
2023/05/16 00:07:51;;;;;;;;;;;8.10;99.90;;;;;;6191955;23;20016;-75
2023/05/16 00:10:17;;;;;;;;;;;8.10;99.90;;;;;;6163628;23;19932;-75
2023/05/16 00:12:43;;;;;;;;;;;8.10;99.90;;;;;;6185215;23;20241;-76
2023/05/16 00:15:12;;;;;;;;;;;8.20;99.90;;;;;;6158515;23;19920;-76
2023/05/16 00:17:39;;;;;;;;;;;8.10;99.90;;;;;;6185688;23;19987;-76
2023/05/16 00:20:06;;;;;;;;;;;8.10;99.90;;;;;;6184015;23;19920;-76
2023/05/16 00:22:32;;;;;;;;;;;8.10;99.90;;;;;;6184863;23;19920;-76
2023/05/16 00:24:57;;;;;;;;;;;8.00;99.90;;;;;;6158670;23;19920;-76
2023/05/16 00:27:23;;;;;;;;;;;8.00;99.90;;;;;;6158638;23;20247;-76
2023/05/16 00:29:48;;;;;;;;;;;8.00;99.90;;;;;;6158626;23;19920;-76
2023/05/16 00:32:14;;;;;;;;;;;8.00;99.90;;;;;;6160740;23;20359;-76
2023/05/16 00:34:42;;;;;;;;;;;8.10;99.90;;;;;;6160284;23;19920;-76
2023/05/16 00:37:08;;;;;;;;;;;8.00;99.90;;;;;;6186867;23;19962;-76
2023/05/16 00:39:33;;;;;;;;;;;8.00;99.90;;;;;;6160630;23;19927;-75
2023/05/16 00:41:59;;;;;;;;;;;8.00;99.90;;;;;;6186500;23;19920;-76
2023/05/16 00:44:25;;;;;;;;;;;8.70;99.90;;;;;;6160840;23;19920;-76
2023/05/16 00:46:51;;;;;;;;;;;8.90;99.90;;;;;;6187218;23;19920;-76
2023/05/16 00:49:17;;;;;;;;;;;8.10;99.90;;;;;;6186435;23;19921;-76
2023/05/16 00:51:42;;;;;;;;;;;8.10;99.90;;;;;;6187559;23;19974;-76
2023/05/16 00:54:08;;;;;;;;;;;8.00;99.90;;;;;;6160177;23;20007;-76
2023/05/16 00:56:33;;;;;;;;;;;8.10;99.90;;;;;;6159942;23;20363;-76
2023/05/16 00:59:00;;;;;;;;;;;8.10;99.90;;;;;;6160628;23;19920;-76
2023/05/16 01:01:28;;;;;;;;;;;8.10;99.90;;;;;;6186888;23;20049;-76
2023/05/16 01:03:54;;;;;;;;;;;8.30;99.90;;;;;;6160414;23;19930;-76
2023/05/16 01:06:19;;;;;;;;;;;7.90;99.90;;;;;;6160598;23;20329;-76
2023/05/16 01:08:47;;;;;;;;;;;9.30;99.90;;;;;;6159529;23;19975;-76
2023/05/16 01:11:25;;;;;;;;;;;7.90;99.90;;;;;;6160539;23;19924;-76
2023/05/16 01:13:54;;;;;;;;;;;7.80;99.90;;;;;;6186631;23;20267;-76
2023/05/16 01:16:25;;;;;;;;;;;7.80;99.90;;;;;;6159593;23;20344;-75
2023/05/16 01:18:59;;;;;;;;;;;8.50;99.90;;;;;;6186729;23;19947;-75
2023/05/16 01:21:37;;;;;;;;;;;7.90;99.90;;;;;;6160733;23;19920;-76
2023/05/16 01:24:12;;;;;;;;;;;7.80;99.90;;;;;;6185355;23;19975;-76
2023/05/16 01:26:38;;;;;;;;;;;7.80;99.90;;;;;;6160876;23;19920;-75
2023/05/16 01:29:06;;;;;;;;;;;7.80;99.90;;;;;;6186969;23;19920;-76
2023/05/16 01:31:32;;;;;;;;;;;7.80;99.90;;;;;;6186370;23;19930;-76
2023/05/16 01:33:58;;;;;;;;;;;8.10;99.90;;;;;;6186652;23;19940;-76
2023/05/16 01:36:34;;;;;;;;;;;9.00;99.90;;;;;;6160672;23;19932;-76
2023/05/16 01:39:10;;;;;;;;;;;7.80;99.90;;;;;;6186644;23;19920;-76
2023/05/16 01:41:41;;;;;;;;;;;7.80;99.90;;;;;;6159960;23;19927;-75
2023/05/16 01:44:11;;;;;;;;;;;7.80;99.90;;;;;;6159159;23;19975;-76
2023/05/16 01:46:39;;;;;;;;;;;7.70;99.90;;;;;;6160442;23;20023;-76
2023/05/16 01:49:15;;;;;;;;;;;8.50;99.90;;;;;;6160492;23;20325;-76
2023/05/16 01:51:41;;;;;;;;;;;7.60;99.90;;;;;;6159577;23;20365;-76
2023/05/16 01:54:10;;;;;;;;;;;7.60;99.90;;;;;;6160263;23;20333;-76
2023/05/16 01:56:36;;;;;;;;;;;7.60;99.90;;;;;;6186725;23;20333;-76
2023/05/16 01:59:03;;;;;;;;;;;7.60;99.90;;;;;;6158679;23;19951;-76
2023/05/16 02:01:29;;;;;;;;;;;7.50;99.90;;;;;;6160591;23;20248;-75
2023/05/16 02:03:54;;;;;;;;;;;7.50;99.90;;;;;;6186801;23;19920;-76
2023/05/16 02:06:20;;;;;;;;;;;7.50;99.90;;;;;;6186056;23;19920;-76
2023/05/16 02:08:46;;;;;;;;;;;7.50;99.90;;;;;;6186632;23;19955;-76
2023/05/16 02:11:11;;;;;;;;;;;7.50;99.90;;;;;;6186474;23;19920;-76
2023/05/16 02:13:37;;;;;;;;;;;7.50;99.90;;;;;;6159140;23;19955;-76
2023/05/16 02:16:03;;;;;;;;;;;8.40;99.90;;;;;;6159971;23;20360;-76
2023/05/16 02:18:28;;;;;;;;;;;7.50;99.90;;;;;;6159810;23;19920;-75
2023/05/16 02:20:54;;;;;;;;;;;7.50;99.90;;;;;;6185142;23;19927;-76
2023/05/16 02:23:20;;;;;;;;;;;7.50;99.90;;;;;;6160091;23;19995;-76
2023/05/16 02:25:45;;;;;;;;;;;7.60;99.90;;;;;;6186131;23;20222;-76
2023/05/16 02:28:11;;;;;;;;;;;7.60;99.90;;;;;;6159453;23;19920;-75
2023/05/16 02:30:36;;;;;;;;;;;7.60;99.90;;;;;;6159763;23;19927;-76
2023/05/16 02:33:02;;;;;;;;;;;7.60;99.90;;;;;;6185647;23;19927;-76
2023/05/16 02:35:27;;;;;;;;;;;7.80;99.90;;;;;;6186308;23;19931;-76
2023/05/16 02:37:54;;;;;;;;;;;7.70;99.90;;;;;;6159647;23;19971;-76
2023/05/16 02:40:19;;;;;;;;;;;7.50;99.90;;;;;;6186011;23;20019;-75
2023/05/16 02:42:45;;;;;;;;;;;7.50;99.90;;;;;;6186140;23;19924;-75
2023/05/16 02:45:11;;;;;;;;;;;7.50;99.90;;;;;;6186100;23;19995;-76
2023/05/16 02:47:36;;;;;;;;;;;7.50;99.90;;;;;;6185489;23;19920;-75
2023/05/16 02:50:02;;;;;;;;;;;7.50;99.90;;;;;;6185636;23;19927;-75
2023/05/16 02:52:28;;;;;;;;;;;7.40;99.90;;;;;;6186546;23;19987;-76
2023/05/16 02:54:54;;;;;;;;;;;8.80;99.90;;;;;;6184978;23;20304;-75
2023/05/16 02:57:19;;;;;;;;;;;7.40;99.90;;;;;;6186497;23;19960;-76
2023/05/16 02:59:45;;;;;;;;;;;7.40;99.90;;;;;;6159805;23;19963;-76
2023/05/16 03:02:14;;;;;;;;;;;7.50;99.90;;;;;;6158318;23;20329;-76
2023/05/16 03:04:39;;;;;;;;;;;7.50;99.90;;;;;;6186839;23;20047;-76
2023/05/16 03:07:08;;;;;;;;;;;7.50;99.90;;;;;;6159093;23;19920;-75
2023/05/16 03:09:33;;;;;;;;;;;7.80;99.90;;;;;;6159389;23;19995;-76
2023/05/16 03:11:59;;;;;;;;;;;7.50;99.90;;;;;;6159195;23;20325;-76
2023/05/16 03:14:24;;;;;;;;;;;7.70;99.90;;;;;;6160093;23;20293;-76
2023/05/16 03:16:50;;;;;;;;;;;7.70;99.90;;;;;;6185757;23;19921;-76
2023/05/16 03:19:16;;;;;;;;;;;7.60;99.90;;;;;;6160207;23;19921;-75
2023/05/16 03:21:41;;;;;;;;;;;8.60;99.90;;;;;;6160066;23;20337;-76
2023/05/16 03:24:07;;;;;;;;;;;7.80;99.90;;;;;;6159561;23;19931;-76
2023/05/16 03:26:33;;;;;;;;;;;7.60;99.90;;;;;;6159899;23;20293;-75
2023/05/16 03:28:58;;;;;;;;;;;7.60;99.90;;;;;;6159158;23;19995;-76
2023/05/16 03:31:24;;;;;;;;;;;7.60;99.90;;;;;;6186202;23;19955;-75
2023/05/16 03:33:49;;;;;;;;;;;7.60;99.90;;;;;;6186576;23;20322;-76
2023/05/16 03:36:15;;;;;;;;;;;7.90;99.90;;;;;;6159577;23;19920;-74
2023/05/16 03:38:40;;;;;;;;;;;7.60;99.90;;;;;;6186238;23;19924;-76
2023/05/16 03:41:09;;;;;;;;;;;7.70;99.90;;;;;;6160133;23;20253;-76
2023/05/16 03:43:36;;;;;;;;;;;7.60;99.90;;;;;;6159791;23;19920;-75
2023/05/16 03:46:01;;;;;;;;;;;7.60;99.90;;;;;;6186755;23;20016;-75
2023/05/16 03:48:27;;;;;;;;;;;7.90;99.90;;;;;;6160427;23;19944;-74
2023/05/16 03:50:53;;;;;;;;;;;7.60;99.90;;;;;;6185926;23;19998;-75
2023/05/16 03:53:21;;;;;;;;;;;7.60;99.90;;;;;;6165947;23;19990;-74
2023/05/16 03:55:47;;;;;;;;;;;7.90;99.90;;;;;;6193639;23;19920;-77
2023/05/16 03:58:12;;;;;;;;;;;7.70;99.90;;;;;;6191867;23;20245;-72
2023/05/16 04:00:38;;;;;;;;;;;7.60;99.90;;;;;;6191974;23;19998;-73
2023/05/16 04:03:03;;;;;;;;;;;7.60;99.90;;;;;;6189205;23;19924;-75
2023/05/16 04:05:29;;;;;;;;;;;7.60;99.90;;;;;;6184607;23;19920;-83
2023/05/16 04:07:55;;;;;;;;;;;7.60;99.90;;;;;;6185322;23;19920;-75
2023/05/16 04:10:20;;;;;;;;;;;7.60;99.90;;;;;;6159051;23;19927;-74
2023/05/16 04:12:46;;;;;;;;;;;7.60;99.90;;;;;;6152934;23;19921;-73
2023/05/16 04:15:11;;;;;;;;;;;7.60;99.90;;;;;;6154140;23;20328;-73
2023/05/16 04:17:37;;;;;;;;;;;7.50;99.90;;;;;;6155570;23;19921;-72
2023/05/16 04:20:03;;;;;;;;;;;9.10;99.90;;;;;;6152671;23;19924;-74
2023/05/16 04:22:29;;;;;;;;;;;7.60;99.90;;;;;;6153782;23;19921;-74
2023/05/16 04:24:55;;;;;;;;;;;8.70;99.90;;;;;;6155039;23;19955;-75
2023/05/16 04:27:21;;;;;;;;;;;7.70;99.90;;;;;;6153012;23;19924;-74
2023/05/16 04:29:49;;;;;;;;;;;7.80;99.90;;;;;;6153344;23;19920;-74
2023/05/16 04:32:16;;;;;;;;;;;7.90;99.90;;;;;;6155713;23;19921;-74
2023/05/16 04:34:43;;;;;;;;;;;8.00;99.90;;;;;;6152313;23;19920;-76
2023/05/16 04:37:08;;;;;;;;;;;8.10;99.90;;;;;;6152199;23;19932;-74
2023/05/16 04:39:35;;;;;;;;;;;8.10;99.90;;;;;;6151984;23;19920;-78
2023/05/16 04:42:00;;;;;;;;;;;8.10;99.90;;;;;;6154161;23;19975;-77
2023/05/16 04:44:26;;;;;;;;;;;8.10;99.90;;;;;;6155143;23;19917;-75
2023/05/16 04:46:52;;;;;;;;;;;8.20;99.90;;;;;;6151955;23;19982;-80
2023/05/16 04:49:21;;;;;;;;;;;8.30;99.90;;;;;;6153667;23;20328;-78
2023/05/16 04:51:47;;;;;;;;;;;8.30;99.90;;;;;;6154960;23;19916;-78
2023/05/16 04:54:12;;;;;;;;;;;8.40;99.90;;;;;;6153612;23;20345;-80
2023/05/16 04:56:41;;;;;;;;;;;9.40;99.90;;;;;;6151224;23;19925;-78
2023/05/16 04:59:06;;;;;;;;;;;8.50;99.90;;;;;;6154235;23;20289;-83
2023/05/16 05:01:32;;;;;;;;;;;8.60;99.90;;;;;;6152219;23;19925;-84
2023/05/16 05:03:57;;;;;;;;;;;8.70;99.90;;;;;;6152345;23;19927;-78
2023/05/16 05:06:23;;;;;;;;;;;8.70;99.90;;;;;;6154646;23;19925;-89
2023/05/16 05:08:49;;;;;;;;;;;8.80;99.90;;;;;;6151103;23;19927;-79
2023/05/16 05:11:14;;;;;;;;;;;8.80;99.90;;;;;;6153485;23;19916;-81
2023/05/16 05:13:40;;;;;;;;;;;8.80;99.90;;;;;;6157343;23;20337;-80
2023/05/16 05:16:05;;;;;;;;;;;8.90;99.90;;;;;;6157247;23;19962;-81
2023/05/16 05:18:31;;;;;;;;;;;8.90;99.90;;;;;;6185261;23;19967;-80
2023/05/16 05:20:57;;;;;;;;;;;8.90;99.90;;;;;;6185876;23;19998;-80
2023/05/16 05:23:22;;;;;;;;;;;9.00;99.90;;;;;;6185425;23;19921;-88
2023/05/16 05:25:48;;;;;;;;;;;9.00;99.90;;;;;;6158343;23;19927;-86
2023/05/16 05:28:14;;;;;;;;;;;9.50;99.90;;;;;;6185628;23;19924;-85
2023/05/16 05:30:39;;;;;;;;;;;9.20;99.90;;;;;;6185973;23;19920;-84
2023/05/16 05:33:05;;;;;;;;;;;10.50;99.90;;;;;;6159835;23;19979;-76
2023/05/16 05:35:30;;;;;;;;;;;9.50;99.90;;;;;;6159452;23;19925;-76
2023/05/16 05:37:56;;;;;;;;;;;9.50;99.90;;;;;;6157811;23;19921;-76
2023/05/16 05:40:21;;;;;;;;;;;9.40;99.90;;;;;;6186447;23;19920;-79
2023/05/16 05:42:47;;;;;;;;;;;9.40;99.90;;;;;;6185867;23;20333;-78
2023/05/16 05:45:13;;;;;;;;;;;9.30;99.90;;;;;;6160159;23;19999;-78
2023/05/16 05:47:39;;;;;;;;;;;9.50;99.90;;;;;;6186762;23;19920;-78
2023/05/16 05:50:05;;;;;;;;;;;10.00;99.90;;;;;;6159440;23;19973;-78
2023/05/16 05:52:33;;;;;;;;;;;9.10;99.90;;;;;;6186217;23;20360;-79
2023/05/16 05:54:59;;;;;;;;;;;9.00;99.90;;;;;;6159561;23;19921;-79
2023/05/16 05:57:27;;;;;;;;;;;9.10;99.90;;;;;;6186559;23;19995;-79
2023/05/16 05:59:55;;;;;;;;;;;9.00;99.90;;;;;;6159524;23;19971;-79
2023/05/16 06:02:21;;;;;;;;;;;9.10;99.90;;;;;;6160390;23;19959;-79
2023/05/16 06:04:46;;;;;;;;;;;9.10;99.90;;;;;;6159317;23;19916;-79
2023/05/16 06:07:14;;;;;;;;;;;9.20;99.90;;;;;;6186373;23;19927;-79
2023/05/16 06:09:39;;;;;;;;;;;9.20;99.90;;;;;;6160376;23;19927;-79
2023/05/16 06:12:05;;;;;;;;;;;9.30;99.90;;;;;;6158988;23;19916;-79
2023/05/16 06:14:31;;;;;;;;;;;9.30;99.90;;;;;;6155002;23;19927;-79
2023/05/16 06:16:56;;;;;;;;;;;9.40;99.90;;;;;;6156662;23;19921;-79
2023/05/16 06:19:22;;;;;;;;;;;9.40;99.90;;;;;;6153853;23;19921;-79
2023/05/16 06:21:47;;;;;;;;;;;9.50;99.90;;;;;;6155035;23;20250;-79
2023/05/16 06:24:13;;;;;;;;;;;9.50;99.90;;;;;;6155153;23;19921;-78
2023/05/16 06:26:38;;;;;;;;;;;9.60;99.90;;;;;;6155826;23;20245;-79
2023/05/16 06:29:04;;;;;;;;;;;9.80;99.90;;;;;;6156376;23;19931;-79
2023/05/16 06:31:30;;;;;;;;;;;9.90;99.90;;;;;;6157015;23;19917;-79
2023/05/16 06:33:55;;;;;;;;;;;10.00;99.90;;;;;;6155290;23;20388;-79
2023/05/16 06:36:21;;;;;;;;;;;10.10;99.90;;;;;;6156475;23;19921;-80
2023/05/16 06:38:46;;;;;;;;;;;10.10;99.90;;;;;;6156843;23;19935;-80
2023/05/16 06:41:12;;;;;;;;;;;10.10;99.90;;;;;;6153662;23;20257;-79
2023/05/16 06:43:39;;;;;;;;;;;10.20;99.90;;;;;;6154636;23;19928;-78
2023/05/16 06:46:05;;;;;;;;;;;10.30;99.90;;;;;;6153903;23;19930;-78
2023/05/16 06:48:30;;;;;;;;;;;10.60;99.90;;;;;;6156252;23;20334;-80
2023/05/16 06:50:56;;;;;;;;;;;10.50;99.90;;;;;;6154521;23;19921;-79
2023/05/16 06:53:22;;;;;;;;;;;10.60;99.90;;;;;;6155529;23;19927;-79
2023/05/16 06:55:47;;;;;;;;;;;10.70;99.90;;;;;;6154716;23;20226;-79
2023/05/16 06:58:13;;;;;;;;;;;10.90;99.90;;;;;;6154677;23;19921;-80
2023/05/16 07:00:40;;;;;;;;;;;12.20;99.90;;;;;;6156049;23;19945;-80
2023/05/16 07:03:06;;;;;;;;;;;11.20;99.90;;;;;;6154158;23;19921;-81
2023/05/16 07:05:31;;;;;;;;;;;11.20;99.90;;;;;;6155884;23;19992;-81
2023/05/16 07:07:57;;;;;;;;;;;11.40;99.90;;;;;;6153545;23;20273;-78
2023/05/16 07:10:22;;;;;;;;;;;11.60;99.90;;;;;;6156482;23;19928;-78
2023/05/16 07:12:48;;;;;;;;;;;11.70;99.90;;;;;;6159104;23;20249;-77
2023/05/16 07:15:13;;;;;;;;;;;11.80;99.90;;;;;;6159005;23;19924;-77
2023/05/16 07:17:39;;;;;;;;;;;11.90;99.90;;;;;;6159658;23;19991;-77
2023/05/16 07:20:12;;;;;;;;;;;11.70;99.90;;;;;;6158988;23;20296;-76
2023/05/16 07:22:38;;;;;;;;;;;11.60;99.90;;;;;;6158720;23;19920;-76
2023/05/16 07:25:04;;;;;;;;;;;11.40;99.90;;;;;;6185711;23;19941;-76
2023/05/16 07:27:30;;;;;;;;;;;11.20;99.90;;;;;;6186169;23;19921;-75
2023/05/16 07:29:56;;;;;;;;;;;11.10;99.90;;;;;;6184616;23;19920;-77
2023/05/16 07:32:22;;;;;;;;;;;11.60;99.90;;;;;;6185852;23;19962;-77
2023/05/16 07:34:48;;;;;;;;;;;12.60;99.90;;;;;;6185469;23;19925;-76
2023/05/16 07:37:14;;;;;;;;;;;13.00;99.90;;;;;;6185239;23;19939;-77
2023/05/16 07:39:40;;;;;;;;;;;13.10;99.90;;;;;;6159180;23;19920;-77
2023/05/16 07:42:07;;;;;;;;;;;13.10;99.90;;;;;;6158983;23;19975;-77
2023/05/16 07:44:32;;;;;;;;;;;13.00;99.90;;;;;;6158489;23;19916;-77
2023/05/16 07:46:58;;;;;;;;;;;13.40;99.90;;;;;;6156352;23;19932;-78
2023/05/16 07:50:03;;;;;;;;;;;;;;;;;;;;;
2023/05/16 07:59:51;;;;;;;;;;;14.60;99.90;;;;;;6076081;23;20332;-76
2023/05/16 08:02:21;;;;;;;;;;;16.90;99.90;;;;;;6070662;23;19921;-76
2023/05/16 08:04:50;;;;;;;;;;;15.70;99.90;;;;;;6152790;23;19948;-76
2023/05/16 08:07:18;;;;;;;;;;;16.60;99.90;;;;;;6154443;23;19924;-76
2023/05/16 08:09:44;;;;;;;;;;;16.70;99.90;;;;;;6156229;23;19952;-76
2023/05/16 08:12:14;;;;;;;;;;;17.80;99.90;;;;;;6152480;23;20198;-76
2023/05/16 08:14:39;;;;;;;;;;;17.70;99.90;;;;;;6154444;23;19971;-76
2023/05/16 08:17:05;;;;;;;;;;;16.90;99.20;;;;;;6153784;23;19921;-76
2023/05/16 08:19:31;;;;;;;;;;;16.30;99.90;;;;;;6153282;23;19920;-75
2023/05/16 08:21:57;;;;;;;;;;;16.10;99.90;;;;;;6153526;23;19920;-76
2023/05/16 08:24:23;;;;;;;;;;;16.60;99.90;;;;;;6153585;23;19953;-76
2023/05/16 08:26:49;;;;;;;;;;;15.70;99.90;;;;;;6155502;23;19999;-75
2023/05/16 08:29:14;;;;;;;;;;;15.90;99.90;;;;;;6154250;23;19921;-76
2023/05/16 08:31:40;;;;;;;;;;;15.60;99.90;;;;;;6153151;23;19928;-75
2023/05/16 08:34:05;;;;;;;;;;;15.30;99.90;;;;;;6153531;23;19920;-76
2023/05/16 08:36:33;;;;;;;;;;;14.70;99.90;;;;;;6155849;23;19920;-75
2023/05/16 08:38:59;;;;;;;;;;;14.70;99.90;;;;;;6151637;23;19932;-77
2023/05/16 08:41:27;;;;;;;;;;;15.30;99.90;;;;;;6155881;23;19980;-76
2023/05/16 08:43:53;;;;;;;;;;;16.30;99.90;;;;;;6155615;23;20004;-76
2023/05/16 08:46:20;;;;;;;;;;;17.40;99.90;;;;;;6152708;23;19960;-76
2023/05/16 08:48:50;;;;;;;;;;;17.30;99.10;;;;;;6149186;23;19924;-77
2023/05/16 08:51:17;;;;;;;;;;;17.00;99.50;;;;;;6154360;23;19975;-76
2023/05/16 08:53:44;;;;;;;;;;;16.80;99.90;;;;;;6156397;23;19921;-77
2023/05/16 08:56:11;;;;;;;;;;;16.60;98.30;;;;;;6155821;23;20333;-76
2023/05/16 08:58:37;;;;;;;;;;;17.00;99.80;;;;;;6154985;23;19920;-76
2023/05/16 09:01:07;;;;;;;;;;;17.50;98.90;;;;;;6153800;23;20019;-78
2023/05/16 09:03:35;;;;;;;;;;;17.70;98.20;;;;;;6156978;23;19920;-76
2023/05/16 09:06:01;;;;;;;;;;;17.40;98.00;;;;;;6154876;23;20337;-77
2023/05/16 09:08:27;;;;;;;;;;;16.80;98.10;;;;;;6153710;23;19920;-75
2023/05/16 09:10:55;;;;;;;;;;;16.80;99.90;;;;;;6154597;23;19971;-77
2023/05/16 09:13:21;;;;;;;;;;;17.50;99.10;;;;;;6155231;23;19921;-77
2023/05/16 09:16:06;;;;;;;;;;;18.20;98.70;;;;;;6151931;23;19995;-79
2023/05/16 09:18:32;;;;;;;;;;;18.80;96.30;;;;;;6155188;23;19999;-79
2023/05/16 09:20:58;;;;;;;;;;;19.60;95.40;;;;;;6153749;23;20334;-77
2023/05/16 09:23:24;;;;;;;;;;;19.90;94.80;;;;;;6154872;23;19991;-78
2023/05/16 09:25:52;;;;;;;;;;;20.10;94.40;;;;;;6154734;23;19975;-80
2023/05/16 09:28:17;;;;;;;;;;;19.70;93.50;;;;;;6155956;23;19927;-78
2023/05/16 09:30:45;;;;;;;;;;;18.60;94.30;;;;;;6155066;23;20253;-79
2023/05/16 09:33:10;;;;;;;;;;;18.50;95.50;;;;;;6156486;23;19921;-78
2023/05/16 09:35:36;;;;;;;;;;;19.00;96.20;;;;;;6156376;23;19917;-79
2023/05/16 09:38:01;;;;;;;;;;;19.10;94.40;;;;;;6155815;23;19943;-78
2023/05/16 09:40:27;;;;;;;;;;;18.70;94.80;;;;;;6154775;23;19968;-77
2023/05/16 09:43:01;;;;;;;;;;;18.20;94.70;;;;;;6153389;23;20295;-78
2023/05/16 09:45:26;;;;;;;;;;;17.50;94.80;;;;;;6154806;23;19928;-79
2023/05/16 09:47:52;;;;;;;;;;;17.40;96.20;;;;;;6156092;23;20249;-77
2023/05/16 09:50:18;;;;;;;;;;;18.10;96.50;;;;;;6155447;23;19924;-77
2023/05/16 09:52:43;;;;;;;;;;;18.60;97.30;;;;;;6156773;23;19944;-77
2023/05/16 09:55:09;;;;;;;;;;;19.10;94.40;;;;;;6156094;23;20289;-78
2023/05/16 09:57:38;;;;;;;;;;;19.10;94.70;;;;;;6129035;23;19928;-76
2023/05/16 10:00:07;;;;;;;;;;;19.20;94.10;;;;;;6129963;23;20211;-77
2023/05/16 10:02:33;;;;;;;;;;;18.70;94.30;;;;;;6129911;23;19959;-76
2023/05/16 10:04:59;;;;;;;;;;;18.40;94.50;;;;;;6154906;23;19960;-76
2023/05/16 10:18:17;;;;;;;;;;;17.20;96.20;;;;;;6154717;23;19975;-76
2023/05/16 10:20:52;;;;;;;;;;;16.30;97.30;;;;;;6154164;23;20301;-77
2023/05/16 10:23:18;;;;;;;;;;;16.90;99.40;;;;;;6154238;23;20016;-79
2023/05/16 10:25:45;;;;;;;;;;;16.30;99.00;;;;;;6153140;23;19924;-76
2023/05/16 10:28:11;;;;;;;;;;;15.60;99.30;;;;;;6153866;23;19955;-77
2023/05/16 10:40:54;;;;;;;;;;;15.70;99.90;;;;;;6129153;23;19928;-79
2023/05/16 10:43:27;;;;;;;;;;;15.60;99.90;;;;;;6156094;23;19924;-79
2023/05/16 10:45:53;;;;;;;;;;;15.70;99.90;;;;;;6128217;23;19920;-78
2023/05/16 10:48:28;;;;;;;;;;;16.20;99.90;;;;;;6129725;23;19924;-79
2023/05/16 10:50:53;;;;;;;;;;;17.00;99.90;;;;;;6155932;23;19999;-79
2023/05/16 10:53:22;;;;;;;;;;;17.80;99.60;;;;;;6155119;23;19944;-78
2023/05/16 10:55:48;;;;;;;;;;;18.20;98.00;;;;;;6155535;23;19920;-80
2023/05/16 10:58:17;;;;;;;;;;;18.80;96.00;;;;;;6156101;23;19948;-78
2023/05/16 11:00:46;;;;;;;;;;;19.40;95.10;;;;;;6155084;23;19921;-77
2023/05/16 11:03:24;;;;;;;;;;;19.50;94.50;;;;;;6129307;23;19924;-76
2023/05/16 11:05:58;;;;;;;;;;;19.60;94.80;;;;;;6129346;23;19920;-76
2023/05/16 11:08:27;;;;;;;;;;;19.40;93.90;;;;;;6155123;23;19974;-75
2023/05/16 11:11:12;;;;;;;;;;;19.40;94.10;;;;;;6129175;23;19982;-76
2023/05/16 11:13:52;;;;;;;;;;;19.30;93.80;;;;;;6154442;23;19973;-75
2023/05/16 11:16:27;;;;;;;;;;;18.90;94.00;;;;;;6129289;23;19987;-76
2023/05/16 11:18:53;;;;;;;;;;;19.00;95.20;;;;;;6154690;23;20321;-76
2023/05/16 11:21:19;;;;;;;;;;;19.50;95.00;;;;;;6155136;23;19967;-77
2023/05/16 11:24:04;;;;;;;;;;;19.60;94.00;;;;;;6129101;23;20388;-76
2023/05/16 11:26:30;;;;;;;;;;;19.20;93.70;;;;;;6155264;23;19924;-75
2023/05/16 11:28:58;;;;;;;;;;;19.00;93.50;;;;;;6153980;23;20388;-73
2023/05/16 11:31:25;;;;;;;;;;;19.30;94.20;;;;;;6145653;23;19920;-75
2023/05/16 11:34:15;;;;;;;;;;;19.40;93.80;;;;;;6153556;23;19921;-77
2023/05/16 11:36:41;;;;;;;;;;;19.40;93.50;;;;;;6154029;23;19917;-76
2023/05/16 11:39:11;;;;;;;;;;;19.20;94.40;;;;;;6154030;23;20349;-76
2023/05/16 11:41:58;;;;;;;;;;;19.30;92.70;;;;;;6154758;23;19921;-77
2023/05/16 11:44:39;;;;;;;;;;;18.80;92.50;;;;;;6154550;23;19927;-77
2023/05/16 11:47:17;;;;;;;;;;;18.70;92.40;;;;;;6153758;23;20035;-77
2023/05/16 11:53:23;;;;;;;;;;;18.80;94.00;;;;;;6158840;23;19939;-81
2023/05/16 11:59:29;;;;;;;;;;;18.80;93.00;;;;;;6160487;23;19924;-78
2023/05/16 12:08:16;;;;;;;;;;;19.00;90.20;;;;;;6184912;23;19918;-79
2023/05/16 12:17:54;;;;;;;;;;;17.80;92.80;;;;;;6184293;23;19915;-76
2023/05/16 12:20:57;;;;;;;;;;;17.40;93.60;;;;;;6185639;23;19921;-78
2023/05/16 12:26:44;;;;;;;;;;;16.70;94.00;;;;;;6186069;23;19918;-78
2023/05/16 12:46:25;;;;;;;;;;;18.90;94.80;;;;;;6038605;23;20403;-79
2023/05/16 12:49:22;;;;;;;;;;;18.10;94.70;;;;;;6038831;23;20243;-80
2023/05/16 12:52:09;;;;;;;;;;;17.50;93.30;;;;;;6014198;23;20228;-79
2023/05/16 12:57:47;;;;;;;;;;;17.30;93.20;;;;;;6015283;23;19929;-79
2023/05/16 13:00:35;;;;;;;;;;;18.60;92.20;;;;;;6013657;23;19997;-79
2023/05/16 13:06:14;;;;;;;;;;;18.70;91.90;;;;;;6003109;23;19946;-79
2023/05/16 13:09:00;;;;;;;;;;;18.50;92.10;;;;;;6003097;23;20058;-83
2023/05/16 13:11:31;;;;;;;;;;;17.60;91.80;;;;;;6007838;23;19932;-78
2023/05/16 13:13:59;;;;;;;;;;;18.20;92.60;;;;;;6008100;23;19922;-77
2023/05/16 13:18:53;;;;;;;;;;;17.30;92.50;;;;;;6155786;23;20214;-76
2023/05/16 13:21:18;;;;;;;;;;;17.20;93.20;;;;;;6152253;23;19925;-78
2023/05/16 13:23:44;;;;;;;;;;;17.30;94.30;;;;;;6128994;23;19921;-74
2023/05/16 13:26:10;;;;;;;;;;;17.50;93.80;;;;;;6129698;23;20289;-72
2023/05/16 13:28:36;;;;;;;;;;;17.70;93.30;;;;;;6129413;23;20249;-72
2023/05/16 13:31:01;;;;;;;;;;;17.90;93.90;;;;;;6156055;23;19943;-73
2023/05/16 13:33:30;;;;;;;;;;;17.90;93.40;;;;;;6130021;23;20341;-72
2023/05/16 13:35:59;;;;;;;;;;;17.80;92.80;;;;;;6154738;23;19990;-72
2023/05/16 13:38:30;;;;;;;;;;;17.60;92.80;;;;;;6155475;23;20344;-75
2023/05/16 13:40:58;;;;;;;;;;;17.50;92.70;;;;;;6154997;23;19921;-83
2023/05/16 13:43:24;;;;;;;;;;;17.30;93.20;;;;;;6156490;23;19995;-74
2023/05/16 13:45:49;;;;;;;;;;;17.10;94.00;;;;;;6129759;23;19949;-76
2023/05/16 13:48:15;;;;;;;;;;;17.00;93.80;;;;;;6155502;23;19955;-75
2023/05/16 13:50:41;;;;;;;;;;;17.00;93.80;;;;;;6156436;23;19921;-75
2023/05/16 13:53:07;;;;;;;;;;;16.70;93.70;;;;;;6155574;23;19967;-76
2023/05/16 13:55:32;;;;;;;;;;;16.80;93.80;;;;;;6129105;23;20012;-76
2023/05/16 13:57:58;;;;;;;;;;;16.80;93.70;;;;;;6156043;23;20261;-76
2023/05/16 14:00:25;;;;;;;;;;;16.60;93.30;;;;;;6156365;23;19967;-76
2023/05/16 14:02:51;;;;;;;;;;;16.60;93.60;;;;;;6128702;23;19948;-75
2023/05/16 14:05:23;;;;;;;;;;;16.40;93.60;;;;;;6127706;23;20016;-76
2023/05/16 14:07:51;;;;;;;;;;;16.30;93.50;;;;;;6159774;23;19924;-77
2023/05/16 14:10:20;;;;;;;;;;;16.20;93.80;;;;;;6133263;23;20337;-76
2023/05/16 14:12:45;;;;;;;;;;;16.30;94.40;;;;;;6156106;23;19921;-75
2023/05/16 14:15:11;;;;;;;;;;;16.10;94.80;;;;;;6155205;23;19928;-73
2023/05/16 14:17:36;;;;;;;;;;;16.10;94.40;;;;;;6154737;23;19925;-82
2023/05/16 14:20:07;;;;;;;;;;;16.00;93.70;;;;;;6129141;23;19980;-80
2023/05/16 14:22:33;;;;;;;;;;;15.90;94.50;;;;;;6130199;23;19921;-77
2023/05/16 14:24:59;;;;;;;;;;;15.80;94.80;;;;;;6128070;23;20245;-74
2023/05/16 14:27:24;;;;;;;;;;;15.80;94.40;;;;;;6156006;23;19920;-79
2023/05/16 14:29:51;;;;;;;;;;;15.90;95.30;;;;;;6156388;23;20337;-80
2023/05/16 14:32:17;;;;;;;;;;;15.80;95.80;;;;;;6153974;23;19952;-74
2023/05/16 14:34:42;;;;;;;;;;;15.80;95.00;;;;;;6127266;23;19920;-73
2023/05/16 14:37:09;;;;;;;;;;;15.70;94.50;;;;;;6154489;23;20381;-74
2023/05/16 14:39:34;;;;;;;;;;;15.50;94.90;;;;;;6128432;23;19921;-73
2023/05/16 14:42:00;;;;;;;;;;;15.40;94.60;;;;;;6155033;23;20245;-76
2023/05/16 14:44:25;;;;;;;;;;;15.80;95.20;;;;;;6124332;23;19944;-73
2023/05/16 14:46:51;;;;;;;;;;;15.20;95.10;;;;;;6153640;23;19920;-74
2023/05/16 14:49:17;;;;;;;;;;;15.10;95.20;;;;;;6128586;23;19920;-73
2023/05/16 14:51:48;;;;;;;;;;;14.90;96.00;;;;;;6128196;23;19984;-73
2023/05/16 14:54:22;;;;;;;;;;;14.60;97.60;;;;;;6154008;23;19920;-73
2023/05/16 14:56:48;;;;;;;;;;;14.70;97.70;;;;;;6155703;23;19979;-73
2023/05/16 14:59:13;;;;;;;;;;;14.50;98.20;;;;;;6154959;23;19952;-74
2023/05/16 15:01:39;;;;;;;;;;;14.40;97.90;;;;;;6129608;23;19987;-73
2023/05/16 15:04:08;;;;;;;;;;;14.30;98.20;;;;;;6154968;23;19956;-73
2023/05/16 15:06:34;;;;;;;;;;;14.30;98.40;;;;;;6154701;23;19999;-72
2023/05/16 15:09:00;;;;;;;;;;;14.20;99.00;;;;;;6154385;23;19927;-71
2023/05/16 15:11:25;;;;;;;;;;;14.20;99.60;;;;;;6154506;23;19917;-77
2023/05/16 15:13:51;;;;;;;;;;;14.30;99.90;;;;;;6129915;23;19920;-75
2023/05/16 15:16:17;;;;;;;;;;;14.30;99.60;;;;;;6152510;23;19988;-76
2023/05/16 15:18:42;;;;;;;;;;;14.40;99.20;;;;;;6151120;23;19995;-79
2023/05/16 15:21:08;;;;;;;;;;;14.30;98.80;;;;;;6155642;23;19983;-77
2023/05/16 15:23:34;;;;;;;;;;;14.40;98.50;;;;;;6153723;23;19986;-77
2023/05/16 15:25:59;;;;;;;;;;;14.40;99.00;;;;;;6152196;23;20004;-77
2023/05/16 15:31:21;;;;;;;;;;;14.50;99.10;;;;;;6220067;23;19920;-77
2023/05/16 15:33:51;;;;;;;;;;;14.60;99.50;;;;;;6192093;23;19927;-74
2023/05/16 15:36:17;;;;;;;;;;;14.60;99.40;;;;;;6221599;23;19920;-75
2023/05/16 15:38:46;;;;;;;;;;;14.60;99.90;;;;;;6191040;23;19931;-74
2023/05/16 15:41:13;;;;;;;;;;;14.70;99.90;;;;;;6186345;23;19927;-75
2023/05/16 15:43:39;;;;;;;;;;;14.80;99.90;;;;;;6188259;23;19920;-73
2023/05/16 15:46:06;;;;;;;;;;;15.00;99.90;;;;;;6190683;23;19946;-76